Terminal Aerodrome Forecast
Issued by NWS Portland, ME

Home | Current Version | Previous Version | Text Only | Print | Product List | Glossary On
Versions: 1 2 3 4 5 6 7 8 9 10 11 12 13 14 15 16 17 18 19 20 21 22 23 24 25 26 27
000
FTUS41 KGYX 290832 AAA
TAFPWM
TAF AMD
KPWM 290832Z 2909/3006 14006KT 6SM BR OVC006
     FM291500 11009KT 6SM BR SCT004 BKN015
     FM292000 11008KT 2SM -SHRA OVC005
     FM300300 11004KT 3/4SM -DZ BR OVC003=

USA.gov is the U.S. government's official web portal to all federal, state and local government web resources and services.